Time;durP1;ratioP1;P1;durP2;ratioP2;P2;SDS_P1;SDS_P2;PMS_P1;PMS_P2;Temp;Humidity;BMP_temperature;BMP_pressure;BME280_temperature;BME280_humidity;BME280_pressure;Samples;Min_cycle;Max_cycle;Signal;HPM_P1;HPM_P2
2021/12/02 00:01:10;;;;;;;14.65;1.80;;;4.20;99.90;;;;;;5059097;28;20045;-70
2021/12/02 00:03:37;;;;;;;14.18;2.05;;;4.20;99.90;;;;;;5067518;28;20519;-70
2021/12/02 00:06:07;;;;;;;17.95;2.53;;;4.10;99.90;;;;;;5059021;28;20068;-70
2021/12/02 00:08:32;;;;;;;13.30;2.45;;;4.10;99.90;;;;;;5060334;28;20413;-69
2021/12/02 00:10:58;;;;;;;15.27;2.05;;;4.10;99.90;;;;;;5060028;28;20057;-70
2021/12/02 00:13:26;;;;;;;13.13;2.13;;;4.10;99.90;;;;;;5060469;28;20082;-70
2021/12/02 00:21:20;;;;;;;10.38;1.90;;;4.00;99.90;;;;;;5067701;28;20048;-69
2021/12/02 00:24:06;;;;;;;11.38;2.03;;;4.00;99.90;;;;;;5052723;28;20048;-69
2021/12/02 00:26:38;;;;;;;17.27;2.47;;;3.90;99.90;;;;;;5057880;28;20037;-70
2021/12/02 00:29:07;;;;;;;13.52;2.35;;;3.80;99.90;;;;;;5053012;28;20112;-70
2021/12/02 00:31:36;;;;;;;12.95;2.20;;;3.90;99.90;;;;;;5055828;28;20041;-69
2021/12/02 00:34:05;;;;;;;11.50;2.17;;;3.80;99.90;;;;;;5062351;28;20186;-69
2021/12/02 00:36:35;;;;;;;7.70;1.60;;;3.80;99.90;;;;;;5072259;28;20161;-70
2021/12/02 00:39:14;;;;;;;6.60;1.65;;;3.80;99.90;;;;;;5046861;28;20128;-70
2021/12/02 00:41:41;;;;;;;8.27;1.92;;;3.80;99.90;;;;;;5051973;28;20048;-70
2021/12/02 00:44:09;;;;;;;11.73;1.73;;;3.80;99.90;;;;;;5066626;28;20041;-69
2021/12/02 00:46:35;;;;;;;10.35;1.83;;;3.80;99.90;;;;;;5061012;28;20048;-70
2021/12/02 00:49:04;;;;;;;14.90;1.83;;;3.80;99.90;;;;;;5055470;28;20056;-68
2021/12/02 00:51:34;;;;;;;11.13;1.85;;;3.90;99.90;;;;;;5072461;28;20450;-70
2021/12/02 00:54:03;;;;;;;12.40;2.08;;;3.80;99.90;;;;;;5053364;28;20387;-70
2021/12/02 00:56:29;;;;;;;20.85;2.13;;;3.80;99.90;;;;;;5053374;28;20509;-69
2021/12/02 00:58:55;;;;;;;10.88;2.30;;;3.80;99.90;;;;;;5070492;28;20041;-70
2021/12/02 01:01:24;;;;;;;11.32;2.50;;;3.70;99.90;;;;;;5061897;28;20478;-69
2021/12/02 01:03:54;;;;;;;6.93;2.03;;;3.70;99.90;;;;;;5051084;28;20053;-70
2021/12/02 01:06:20;;;;;;;10.02;2.15;;;3.60;99.90;;;;;;5064388;28;20055;-70
2021/12/02 01:08:45;;;;;;;11.43;2.35;;;3.60;99.90;;;;;;5060920;28;20037;-69
2021/12/02 01:11:12;;;;;;;6.53;1.30;;;3.60;99.90;;;;;;5056067;28;20041;-69
2021/12/02 01:13:38;;;;;;;10.25;1.58;;;3.60;99.90;;;;;;5052880;28;20044;-70
2021/12/02 01:16:04;;;;;;;6.25;1.33;;;3.70;99.90;;;;;;5054623;28;20051;-69
2021/12/02 01:18:30;;;;;;;4.28;1.48;;;3.70;99.90;;;;;;5067537;28;20076;-70
2021/12/02 01:20:56;;;;;;;5.15;1.27;;;3.70;99.90;;;;;;5054342;28;20126;-69
2021/12/02 01:23:23;;;;;;;6.00;0.98;;;3.80;99.90;;;;;;5057322;28;20033;-69
2021/12/02 01:25:54;;;;;;;8.30;1.70;;;3.80;99.90;;;;;;5064238;28;20041;-69
2021/12/02 01:28:23;;;;;;;10.00;1.60;;;3.80;99.90;;;;;;5052493;28;20537;-69
2021/12/02 01:30:51;;;;;;;9.40;1.42;;;3.80;99.90;;;;;;5059740;28;20094;-68
2021/12/02 01:33:19;;;;;;;3.38;0.77;;;3.80;99.90;;;;;;5052447;28;20037;-70
2021/12/02 01:35:49;;;;;;;5.97;1.08;;;3.90;99.90;;;;;;5050513;28;20648;-70
2021/12/02 01:38:15;;;;;;;7.40;0.90;;;3.80;99.90;;;;;;5053303;28;20049;-70
2021/12/02 01:40:43;;;;;;;4.32;1.10;;;3.80;99.90;;;;;;5061800;28;20040;-69
2021/12/02 01:43:14;;;;;;;10.30;1.40;;;3.70;99.90;;;;;;5058013;28;20510;-70
2021/12/02 01:45:40;;;;;;;7.38;1.35;;;3.60;99.90;;;;;;5066403;28;20044;-69
2021/12/02 01:48:10;;;;;;;6.53;1.10;;;3.50;99.90;;;;;;5054365;28;20055;-69
2021/12/02 01:50:39;;;;;;;5.47;1.50;;;3.50;99.90;;;;;;5054571;28;20043;-69
2021/12/02 01:53:06;;;;;;;5.38;1.13;;;3.40;99.90;;;;;;5054623;28;20052;-69
2021/12/02 01:55:35;;;;;;;9.23;1.73;;;3.40;99.90;;;;;;5053237;28;20048;-69
2021/12/02 01:58:04;;;;;;;3.95;1.10;;;3.40;99.90;;;;;;5065981;28;20060;-69
2021/12/02 02:00:41;;;;;;;7.80;1.17;;;3.30;99.90;;;;;;5057143;28;20091;-70
2021/12/02 02:03:09;;;;;;;4.97;1.35;;;3.30;99.90;;;;;;5059575;28;20048;-70
2021/12/02 02:05:35;;;;;;;8.75;1.48;;;3.30;99.90;;;;;;5054606;28;20426;-70
2021/12/02 02:08:15;;;;;;;5.25;1.30;;;3.20;99.90;;;;;;5058654;28;20036;-70
2021/12/02 02:10:41;;;;;;;13.60;1.70;;;3.20;99.90;;;;;;5069410;28;20131;-70
2021/12/02 02:13:09;;;;;;;11.50;1.70;;;3.10;99.90;;;;;;5061711;28;20401;-71
2021/12/02 02:15:37;;;;;;;7.72;1.50;;;3.10;99.90;;;;;;5066012;28;20553;-70
2021/12/02 02:18:08;;;;;;;6.72;1.60;;;3.10;99.90;;;;;;5070292;28;20051;-70
2021/12/02 02:20:40;;;;;;;8.73;1.60;;;3.00;99.90;;;;;;5055648;28;20049;-70
2021/12/02 02:23:09;;;;;;;6.88;1.60;;;3.00;99.90;;;;;;5061005;28;20112;-70
2021/12/02 02:25:35;;;;;;;14.40;1.63;;;3.00;99.90;;;;;;5060564;28;20433;-70
2021/12/02 02:28:01;;;;;;;3.90;1.35;;;3.00;99.90;;;;;;5062936;28;20588;-70
2021/12/02 02:30:27;;;;;;;10.23;1.70;;;3.00;99.90;;;;;;5055601;28;20208;-70
2021/12/02 02:32:52;;;;;;;15.40;2.20;;;3.00;99.90;;;;;;5053419;28;20422;-70
2021/12/02 02:35:18;;;;;;;6.07;1.40;;;3.00;99.90;;;;;;5059678;28;20404;-70
2021/12/02 02:37:44;;;;;;;9.95;1.58;;;3.10;99.90;;;;;;5058255;28;20498;-69
2021/12/02 02:40:11;;;;;;;8.25;1.67;;;3.10;99.90;;;;;;5054973;28;20053;-69
2021/12/02 02:42:37;;;;;;;13.75;2.22;;;3.10;99.90;;;;;;5056105;28;20059;-69
2021/12/02 02:45:04;;;;;;;8.02;1.83;;;3.20;99.90;;;;;;5058929;28;20117;-69
2021/12/02 02:47:29;;;;;;;8.48;1.98;;;3.20;99.90;;;;;;5062913;28;20037;-69
2021/12/02 02:49:55;;;;;;;9.93;1.80;;;3.20;99.90;;;;;;5048703;28;20064;-69
2021/12/02 02:52:21;;;;;;;7.85;1.73;;;3.30;99.90;;;;;;5057538;28;20036;-69
2021/12/02 02:54:47;;;;;;;7.90;1.85;;;3.30;99.90;;;;;;5060482;28;20044;-70
2021/12/02 02:57:16;;;;;;;7.28;1.45;;;3.40;99.90;;;;;;5063154;28;20593;-69
2021/12/02 03:02:42;;;;;;;11.48;1.40;;;3.40;99.90;;;;;;5055695;28;20045;-70
2021/12/02 03:05:38;;;;;;;7.22;1.20;;;3.40;99.90;;;;;;5052115;28;20448;-71
2021/12/02 03:07:58;;;;;;;6.55;1.25;;;3.40;99.90;;;;;;5057172;28;20128;-71
2021/12/02 03:13:21;;;;;;;4.07;1.02;;;3.30;99.90;;;;;;5053250;28;20080;-70
2021/12/02 03:18:33;;;;;;;3.60;0.60;;;3.40;99.90;;;;;;5051911;28;20048;-69
2021/12/02 03:20:59;;;;;;;4.03;0.95;;;3.20;99.90;;;;;;5057145;28;20420;-70
2021/12/02 03:23:25;;;;;;;5.50;0.80;;;3.10;99.90;;;;;;5057525;28;20044;-70
2021/12/02 03:25:51;;;;;;;5.93;0.70;;;2.90;99.90;;;;;;5060930;28;20045;-70
2021/12/02 03:28:17;;;;;;;2.70;0.65;;;2.90;99.90;;;;;;5052612;28;20132;-68
2021/12/02 03:30:42;;;;;;;3.85;0.80;;;2.80;99.90;;;;;;5062476;28;20116;-70
2021/12/02 03:33:08;;;;;;;2.20;0.73;;;2.70;99.90;;;;;;5066014;28;20513;-69
2021/12/02 03:35:33;;;;;;;3.97;0.73;;;2.60;99.90;;;;;;5058022;28;20086;-70
2021/12/02 03:37:59;;;;;;;2.42;0.80;;;2.60;99.90;;;;;;5057132;28;20052;-70
2021/12/02 03:40:27;;;;;;;2.90;0.47;;;2.50;99.90;;;;;;5058602;28;20082;-70
2021/12/02 03:42:54;;;;;;;2.30;0.70;;;2.50;99.90;;;;;;5064883;28;20140;-69
2021/12/02 03:45:23;;;;;;;4.55;0.47;;;2.40;99.90;;;;;;5058112;28;20084;-69
2021/12/02 03:47:49;;;;;;;3.13;0.47;;;2.30;99.90;;;;;;5061136;28;20044;-70
2021/12/02 03:50:15;;;;;;;1.45;0.50;;;2.20;99.90;;;;;;5054705;28;20045;-70
2021/12/02 03:52:41;;;;;;;2.85;0.65;;;2.20;99.90;;;;;;5066847;28;20049;-70
2021/12/02 03:55:06;;;;;;;2.47;0.60;;;2.20;99.90;;;;;;5057227;28;20132;-70
2021/12/02 03:57:32;;;;;;;2.15;0.70;;;2.20;99.90;;;;;;5061497;28;20120;-70
2021/12/02 04:00:00;;;;;;;3.55;0.80;;;2.20;99.90;;;;;;5055944;28;20127;-69
2021/12/02 04:02:25;;;;;;;2.28;0.82;;;2.10;99.90;;;;;;5066757;28;20067;-70
2021/12/02 04:04:51;;;;;;;2.08;0.77;;;2.10;99.90;;;;;;5060027;28;20041;-69
2021/12/02 04:07:18;;;;;;;2.80;0.88;;;2.00;99.90;;;;;;5058157;28;20036;-70
2021/12/02 04:09:45;;;;;;;5.80;0.73;;;2.00;99.90;;;;;;5056030;28;20068;-69
2021/12/02 04:12:26;;;;;;;2.17;0.68;;;2.00;99.90;;;;;;5043755;28;20102;-70
2021/12/02 04:15:03;;;;;;;3.05;0.80;;;1.90;99.90;;;;;;5060618;28;20057;-69
2021/12/02 04:17:40;;;;;;;2.90;0.68;;;1.90;99.90;;;;;;5061041;28;20052;-69
2021/12/02 04:20:10;;;;;;;3.83;0.70;;;1.90;99.90;;;;;;5052879;28;20052;-69
2021/12/02 04:22:35;;;;;;;3.05;0.77;;;1.90;99.90;;;;;;5054038;28;20102;-70
2021/12/02 04:25:01;;;;;;;2.65;0.70;;;1.90;99.90;;;;;;5067814;28;20029;-70
2021/12/02 04:27:26;;;;;;;2.00;0.77;;;2.00;99.90;;;;;;5065746;28;20117;-69
2021/12/02 04:29:52;;;;;;;2.15;0.80;;;2.20;99.90;;;;;;5059869;28;20037;-69
2021/12/02 04:32:18;;;;;;;4.05;1.00;;;2.20;99.90;;;;;;5053190;28;20041;-69
2021/12/02 04:34:43;;;;;;;2.65;1.50;;;2.20;99.90;;;;;;5058853;28;20154;-70
2021/12/02 04:37:09;;;;;;;3.03;0.90;;;2.20;99.90;;;;;;5067688;28;20048;-70
2021/12/02 04:39:35;;;;;;;5.47;1.52;;;2.20;99.90;;;;;;5063386;28;20502;-70
2021/12/02 04:42:00;;;;;;;5.60;1.10;;;2.30;99.90;;;;;;5060856;28;20047;-70
2021/12/02 04:44:26;;;;;;;6.13;0.90;;;2.20;99.90;;;;;;5061074;28;20459;-70
2021/12/02 04:46:53;;;;;;;4.43;0.90;;;2.30;99.90;;;;;;5053953;28;20037;-70
2021/12/02 04:49:19;;;;;;;3.92;0.80;;;2.30;99.90;;;;;;5052993;28;20095;-70
2021/12/02 04:51:45;;;;;;;7.47;1.33;;;2.30;99.90;;;;;;5066791;28;20510;-69
2021/12/02 04:54:10;;;;;;;2.85;0.73;;;2.30;99.90;;;;;;5054407;28;20094;-69
2021/12/02 04:56:37;;;;;;;2.00;0.82;;;2.30;99.90;;;;;;5063675;28;20102;-70
2021/12/02 04:59:03;;;;;;;3.78;0.80;;;2.30;99.90;;;;;;5062670;28;20041;-69
2021/12/02 05:01:29;;;;;;;2.47;0.70;;;2.20;99.90;;;;;;5052723;28;20056;-69
2021/12/02 05:03:54;;;;;;;10.50;1.70;;;2.30;99.90;;;;;;5063598;28;20076;-69
2021/12/02 05:06:20;;;;;;;3.65;1.35;;;2.30;99.90;;;;;;5062660;28;20040;-69
2021/12/02 05:08:45;;;;;;;2.40;0.88;;;2.20;99.90;;;;;;5053532;28;20498;-69
2021/12/02 05:11:11;;;;;;;8.15;0.93;;;2.20;99.90;;;;;;5062065;28;20490;-69
2021/12/02 05:13:37;;;;;;;2.13;1.00;;;2.20;99.90;;;;;;5066871;28;20064;-69
2021/12/02 05:16:03;;;;;;;7.25;1.00;;;2.70;99.90;;;;;;5063845;28;20078;-69
2021/12/02 05:18:28;;;;;;;5.10;1.40;;;2.30;99.90;;;;;;5055930;28;20050;-70
2021/12/02 05:20:54;;;;;;;4.93;0.90;;;2.30;99.90;;;;;;5053359;28;20491;-70
2021/12/02 05:23:20;;;;;;;1.23;0.77;;;2.30;99.90;;;;;;5052841;28;20037;-70
2021/12/02 05:25:46;;;;;;;4.43;0.82;;;2.30;99.90;;;;;;5068082;28;20032;-70
2021/12/02 05:28:13;;;;;;;6.78;0.85;;;2.30;99.90;;;;;;5058580;28;20059;-70
2021/12/02 05:30:38;;;;;;;11.68;1.33;;;2.30;99.90;;;;;;5054937;28;20055;-70
2021/12/02 05:33:04;;;;;;;1.92;0.45;;;2.30;99.90;;;;;;5057907;28;20041;-69
2021/12/02 05:35:29;;;;;;;2.50;0.68;;;2.30;99.90;;;;;;5059895;28;20457;-69
2021/12/02 05:37:55;;;;;;;3.30;0.93;;;2.30;99.90;;;;;;5059221;28;20045;-69
2021/12/02 05:40:21;;;;;;;3.15;0.65;;;2.60;99.90;;;;;;5062810;28;20044;-70
2021/12/02 05:42:46;;;;;;;3.90;0.73;;;2.30;99.90;;;;;;5055043;28;20099;-69
2021/12/02 05:45:12;;;;;;;4.15;0.70;;;2.20;99.90;;;;;;5053008;28;20129;-69
2021/12/02 05:47:38;;;;;;;4.15;0.80;;;2.20;99.90;;;;;;5054127;28;20466;-69
2021/12/02 05:50:06;;;;;;;0.82;0.70;;;2.20;99.90;;;;;;5061466;28;20032;-69
2021/12/02 05:52:31;;;;;;;6.03;1.08;;;2.10;99.90;;;;;;5060619;28;20052;-69
2021/12/02 05:54:58;;;;;;;3.53;1.20;;;2.20;99.90;;;;;;5060610;28;20048;-69
2021/12/02 05:57:24;;;;;;;3.13;1.42;;;2.10;99.90;;;;;;5063132;28;20340;-70
2021/12/02 05:59:49;;;;;;;3.60;1.35;;;2.10;99.90;;;;;;5055583;28;20048;-70
2021/12/02 06:02:15;;;;;;;5.53;2.35;;;2.10;99.90;;;;;;5059651;28;20044;-70
2021/12/02 06:04:42;;;;;;;3.95;1.70;;;2.10;99.90;;;;;;5053935;28;20135;-70
2021/12/02 06:07:08;;;;;;;9.57;1.90;;;2.10;99.90;;;;;;5060568;28;20045;-71
2021/12/02 06:09:34;;;;;;;10.63;1.80;;;2.10;99.90;;;;;;5058460;28;20048;-71
2021/12/02 06:12:00;;;;;;;5.72;2.17;;;2.10;99.90;;;;;;5073478;28;20049;-70
2021/12/02 06:14:25;;;;;;;4.25;1.65;;;2.10;99.90;;;;;;5061958;28;20052;-70
2021/12/02 06:16:51;;;;;;;4.90;1.58;;;2.00;99.90;;;;;;5055924;28;20048;-71
2021/12/02 06:19:17;;;;;;;8.20;1.80;;;2.00;99.90;;;;;;5045880;28;20140;-70
2021/12/02 06:21:42;;;;;;;4.25;1.70;;;2.10;99.90;;;;;;5057417;28;20040;-69
2021/12/02 06:24:08;;;;;;;4.88;1.60;;;2.00;99.90;;;;;;5057056;28;20371;-69
2021/12/02 06:26:35;;;;;;;5.90;1.48;;;2.00;99.90;;;;;;5062030;28;20044;-70
2021/12/02 06:29:01;;;;;;;5.40;1.45;;;2.00;99.90;;;;;;5057110;28;20501;-70
2021/12/02 06:31:27;;;;;;;3.55;1.05;;;2.00;99.90;;;;;;5058387;28;20052;-70
2021/12/02 06:33:53;;;;;;;9.90;1.23;;;2.00;99.90;;;;;;5058123;28;20532;-70
2021/12/02 06:36:18;;;;;;;5.85;1.30;;;2.00;99.90;;;;;;5064863;28;20037;-70
2021/12/02 06:38:44;;;;;;;4.00;1.02;;;2.00;99.90;;;;;;5082903;28;20044;-70
2021/12/02 06:41:10;;;;;;;5.18;1.67;;;2.00;99.90;;;;;;5060659;28;20044;-70
2021/12/02 06:43:35;;;;;;;5.30;1.08;;;2.00;99.90;;;;;;5063446;28;20040;-70
2021/12/02 06:46:01;;;;;;;4.22;0.90;;;2.00;99.90;;;;;;5060730;28;20435;-70
2021/12/02 06:48:27;;;;;;;2.53;0.75;;;2.00;99.90;;;;;;5063435;28;20526;-69
2021/12/02 06:50:52;;;;;;;8.30;1.63;;;2.00;99.90;;;;;;5044181;28;20093;-69
2021/12/02 06:53:19;;;;;;;4.82;1.10;;;2.00;99.90;;;;;;5062913;28;20071;-69
2021/12/02 06:55:45;;;;;;;5.15;1.27;;;2.00;99.90;;;;;;5055879;28;20080;-69
2021/12/02 06:58:11;;;;;;;4.45;1.20;;;2.00;99.90;;;;;;5058483;28;20037;-70
2021/12/02 07:00:37;;;;;;;6.82;1.30;;;2.00;99.90;;;;;;5056599;28;20452;-69
2021/12/02 07:03:03;;;;;;;4.20;1.52;;;2.00;99.90;;;;;;5055871;28;20054;-70
2021/12/02 07:05:32;;;;;;;4.25;1.55;;;2.00;99.90;;;;;;5056192;28;20510;-69
2021/12/02 07:07:57;;;;;;;5.03;1.50;;;1.90;99.90;;;;;;5059322;28;20396;-69
2021/12/02 07:10:25;;;;;;;5.45;1.80;;;1.90;99.90;;;;;;5057738;28;20049;-69
2021/12/02 07:12:58;;;;;;;14.50;1.90;;;1.90;99.90;;;;;;5060083;28;20276;-69
2021/12/02 07:15:28;;;;;;;8.32;1.70;;;1.90;99.90;;;;;;5054154;28;20302;-70
2021/12/02 07:17:59;;;;;;;10.35;1.85;;;1.90;99.90;;;;;;5061345;28;20528;-69
2021/12/02 07:20:29;;;;;;;6.85;1.73;;;1.80;99.90;;;;;;5056472;28;20044;-69
2021/12/02 07:22:55;;;;;;;6.03;1.63;;;1.80;99.90;;;;;;5054607;28;20072;-69
2021/12/02 07:25:21;;;;;;;6.53;1.70;;;1.80;99.90;;;;;;5059063;28;20356;-69
2021/12/02 07:27:47;;;;;;;7.53;1.70;;;1.70;99.90;;;;;;5059282;28;20048;-70
2021/12/02 07:30:14;;;;;;;6.55;1.80;;;1.80;99.90;;;;;;5057072;28;20044;-69
2021/12/02 07:32:40;;;;;;;4.95;1.80;;;1.70;99.90;;;;;;5056566;28;20052;-69
2021/12/02 07:35:11;;;;;;;8.60;2.00;;;1.70;99.90;;;;;;5052254;28;20130;-71
2021/12/02 07:37:44;;;;;;;6.65;2.00;;;1.70;99.90;;;;;;5064754;28;20056;-68
2021/12/02 07:40:10;;;;;;;9.10;2.30;;;1.60;99.90;;;;;;5058143;28;20410;-68
2021/12/02 07:42:36;;;;;;;6.93;2.00;;;1.60;99.90;;;;;;5056385;28;20438;-69
2021/12/02 07:45:05;;;;;;;6.13;1.63;;;1.60;99.90;;;;;;5062722;28;20064;-68
2021/12/02 07:47:32;;;;;;;2.47;1.30;;;1.50;99.90;;;;;;5056352;28;20037;-67
2021/12/02 07:49:57;;;;;;;7.13;1.70;;;1.50;99.90;;;;;;5060456;28;20097;-67
2021/12/02 07:52:25;;;;;;;9.73;1.95;;;1.50;99.90;;;;;;5057409;28;20036;-69
2021/12/02 07:54:52;;;;;;;9.50;1.85;;;1.50;99.90;;;;;;5052609;28;20068;-68
2021/12/02 07:57:19;;;;;;;7.05;2.28;;;1.50;99.90;;;;;;5059631;28;20440;-67
2021/12/02 07:59:48;;;;;;;7.00;1.70;;;1.70;99.90;;;;;;5055883;28;20047;-69
2021/12/02 08:02:15;;;;;;;6.60;2.30;;;1.50;99.90;;;;;;5057752;28;20422;-70
2021/12/02 08:04:41;;;;;;;7.28;2.50;;;1.60;99.90;;;;;;5044748;28;20049;-70
2021/12/02 08:07:07;;;;;;;8.80;2.45;;;1.60;99.90;;;;;;5059725;28;20072;-69
2021/12/02 08:09:33;;;;;;;6.05;3.03;;;1.60;99.90;;;;;;5056438;28;20080;-69
2021/12/02 08:12:00;;;;;;;9.55;3.30;;;1.60;99.90;;;;;;5058420;28;20057;-69
2021/12/02 08:14:26;;;;;;;10.05;3.30;;;1.80;99.90;;;;;;5064792;28;20045;-68
2021/12/02 08:16:52;;;;;;;8.05;4.55;;;1.90;99.90;;;;;;5066981;28;20452;-69
2021/12/02 08:19:18;;;;;;;12.52;4.65;;;2.00;99.90;;;;;;5067280;28;20146;-68
2021/12/02 08:21:43;;;;;;;8.65;5.28;;;2.20;99.90;;;;;;5064919;28;20131;-70
2021/12/02 08:24:09;;;;;;;8.98;4.55;;;2.30;99.90;;;;;;5062701;28;20037;-68
2021/12/02 08:26:35;;;;;;;12.85;5.47;;;2.50;99.90;;;;;;5068199;28;20045;-69
2021/12/02 08:29:02;;;;;;;8.07;5.57;;;2.60;99.90;;;;;;5065185;28;20094;-69
2021/12/02 08:31:27;;;;;;;8.85;5.43;;;2.70;99.90;;;;;;5060626;28;20045;-69
2021/12/02 08:33:54;;;;;;;9.45;5.70;;;2.80;99.90;;;;;;5059099;28;20090;-68
2021/12/02 08:36:24;;;;;;;14.52;6.15;;;2.90;99.90;;;;;;5062604;28;20048;-68
2021/12/02 08:38:50;;;;;;;18.13;6.53;;;2.90;99.90;;;;;;5068433;28;20049;-69
2021/12/02 08:41:20;;;;;;;13.13;5.97;;;3.00;99.90;;;;;;5064683;28;20095;-69
2021/12/02 08:43:49;;;;;;;11.63;6.47;;;3.10;99.90;;;;;;5069144;28;20150;-68
2021/12/02 08:46:15;;;;;;;10.32;6.93;;;3.20;99.90;;;;;;5070304;28;20037;-68
2021/12/02 08:48:41;;;;;;;10.27;5.80;;;3.20;99.90;;;;;;5067345;28;20080;-69
2021/12/02 08:51:07;;;;;;;9.18;5.45;;;3.30;99.90;;;;;;5071467;28;20091;-69
2021/12/02 08:53:33;;;;;;;12.48;5.00;;;3.30;99.90;;;;;;5060684;28;20041;-68
2021/12/02 08:55:58;;;;;;;10.85;4.68;;;3.30;99.90;;;;;;5062098;28;20067;-69
2021/12/02 08:58:24;;;;;;;7.63;4.22;;;3.40;99.90;;;;;;5066954;28;20061;-70
2021/12/02 09:00:50;;;;;;;10.48;3.70;;;3.40;99.90;;;;;;5066257;28;20040;-69
2021/12/02 09:03:16;;;;;;;7.65;2.83;;;3.40;99.90;;;;;;5059035;28;20037;-69
2021/12/02 09:05:43;;;;;;;6.15;2.50;;;3.40;99.90;;;;;;5068937;28;20066;-68
2021/12/02 09:08:09;;;;;;;7.43;3.25;;;3.40;99.90;;;;;;5056378;28;20131;-68
2021/12/02 09:10:35;;;;;;;6.35;2.53;;;3.30;99.90;;;;;;5071861;28;20045;-69
2021/12/02 09:13:07;;;;;;;5.20;2.90;;;3.30;99.90;;;;;;5064240;28;20044;-68
2021/12/02 09:15:34;;;;;;;3.60;2.67;;;3.30;99.90;;;;;;5071386;28;20461;-69
2021/12/02 09:18:00;;;;;;;6.63;2.78;;;3.20;99.90;;;;;;5072466;28;20108;-68
2021/12/02 09:20:25;;;;;;;6.55;2.10;;;3.30;99.90;;;;;;5063526;28;20049;-69
2021/12/02 09:22:51;;;;;;;3.45;1.70;;;3.30;99.90;;;;;;5065406;28;20502;-69
2021/12/02 09:25:17;;;;;;;6.88;2.60;;;3.30;99.90;;;;;;5057391;28;20040;-68
2021/12/02 09:27:43;;;;;;;4.10;1.92;;;3.30;99.90;;;;;;5068148;28;20521;-69
2021/12/02 09:30:10;;;;;;;4.80;1.80;;;3.40;99.90;;;;;;5070653;28;20049;-68
2021/12/02 09:32:36;;;;;;;6.88;1.75;;;3.40;99.90;;;;;;5072772;28;20094;-69
2021/12/02 09:35:03;;;;;;;4.00;1.80;;;3.50;99.90;;;;;;5071263;28;20055;-70
2021/12/02 09:37:29;;;;;;;6.32;1.90;;;3.60;99.90;;;;;;5060167;28;20036;-69
2021/12/02 09:39:55;;;;;;;4.57;1.55;;;3.60;99.90;;;;;;5067943;28;20098;-69
2021/12/02 09:42:20;;;;;;;5.05;1.60;;;3.70;99.90;;;;;;5063809;28;20121;-68
2021/12/02 09:44:48;;;;;;;5.47;2.00;;;3.70;99.90;;;;;;5064119;28;20395;-69
2021/12/02 09:47:16;;;;;;;5.97;2.00;;;3.70;99.90;;;;;;5062790;28;20056;-69
2021/12/02 09:49:42;;;;;;;6.07;1.80;;;3.50;99.90;;;;;;5068903;28;20037;-70
2021/12/02 09:52:12;;;;;;;5.35;1.48;;;3.40;99.90;;;;;;5061601;28;20048;-71
2021/12/02 09:55:17;;;;;;;7.25;1.60;;;3.00;99.90;;;;;;5065059;28;20075;-71
2021/12/02 09:57:35;;;;;;;2.20;1.15;;;2.50;99.90;;;;;;5071759;28;20083;-70
2021/12/02 10:00:01;;;;;;;6.15;1.63;;;2.10;99.90;;;;;;5070014;28;20062;-69
2021/12/02 10:02:26;;;;;;;3.05;1.15;;;1.80;99.90;;;;;;5063164;28;20037;-69
2021/12/02 10:04:59;;;;;;;3.63;1.40;;;1.70;99.90;;;;;;5070700;28;20052;-69
2021/12/02 10:07:44;;;;;;;3.47;1.60;;;1.50;99.90;;;;;;5064807;28;20067;-69
2021/12/02 10:10:15;;;;;;;3.50;1.50;;;1.50;99.90;;;;;;5059224;28;20052;-70
2021/12/02 10:13:03;;;;;;;5.25;1.60;;;1.70;99.90;;;;;;5065640;28;20045;-70
2021/12/02 10:15:30;;;;;;;2.00;0.95;;;1.80;99.90;;;;;;5061873;28;20048;-69
2021/12/02 10:17:58;;;;;;;5.38;1.40;;;1.50;99.90;;;;;;5061911;28;20139;-70
2021/12/02 10:20:33;;;;;;;4.32;1.40;;;1.50;99.90;;;;;;5069851;28;20446;-69
2021/12/02 10:25:54;;;;;;;2.30;1.25;;;1.60;99.90;;;;;;5068945;28;20359;-70
2021/12/02 10:28:20;;;;;;;4.55;1.77;;;1.70;99.90;;;;;;5062107;28;20044;-72
2021/12/02 10:30:49;;;;;;;4.45;1.65;;;1.80;99.90;;;;;;5065966;28;20036;-71
2021/12/02 10:33:27;;;;;;;;;;;1.90;99.90;;;;;;5060259;28;20044;-71
2021/12/02 10:35:52;;;;;;;3.63;1.77;;;2.00;99.90;;;;;;5057370;28;19928;-69
2021/12/02 10:38:39;;;;;;;4.85;1.38;;;2.10;99.90;;;;;;5060656;28;20044;-70
2021/12/02 10:41:16;;;;;;;3.08;1.58;;;2.20;99.90;;;;;;5059358;28;20093;-70
2021/12/02 10:44:06;;;;;;;7.25;2.60;;;2.30;99.90;;;;;;5062988;28;20045;-71
2021/12/02 10:46:33;;;;;;;;;;;2.30;99.90;;;;;;5065273;28;20112;-70
2021/12/02 10:48:59;;;;;;;4.85;1.65;;;2.30;99.90;;;;;;5062063;28;19921;-70
2021/12/02 10:51:50;;;;;;;6.78;1.80;;;2.20;99.90;;;;;;5069812;28;20097;-71
2021/12/02 10:54:30;;;;;;;5.18;1.38;;;2.20;99.90;;;;;;5065998;28;20076;-71
2021/12/02 10:56:59;;;;;;;6.70;1.73;;;2.20;99.90;;;;;;5058699;28;20059;-70
2021/12/02 10:59:29;;;;;;;;;;;2.10;99.90;;;;;;5062851;28;20437;-71
2021/12/02 11:02:07;;;;;;;3.53;1.33;;;2.10;99.90;;;;;;5063948;28;20025;-72
2021/12/02 11:04:40;;;;;;;3.60;1.20;;;2.10;99.90;;;;;;5065126;28;20037;-71
2021/12/02 11:07:10;;;;;;;2.75;1.38;;;2.10;99.90;;;;;;5063715;28;20079;-72
2021/12/02 11:09:37;;;;;;;2.42;1.00;;;2.00;99.90;;;;;;5064748;28;20048;-72
2021/12/02 11:12:36;;;;;;;1.83;0.93;;;1.90;99.90;;;;;;5065673;28;20040;-72
2021/12/02 11:15:16;;;;;;;1.90;0.93;;;1.80;99.90;;;;;;5060316;28;20053;-71
2021/12/02 11:17:50;;;;;;;4.22;1.20;;;1.80;99.90;;;;;;5058747;28;20406;-71
2021/12/02 11:20:37;;;;;;;3.15;0.90;;;1.80;99.90;;;;;;5062058;28;20131;-71
2021/12/02 11:23:18;;;;;;;2.15;0.80;;;1.80;99.90;;;;;;5058124;28;20036;-71
2021/12/02 11:25:54;;;;;;;3.72;1.00;;;1.80;99.90;;;;;;5063383;28;20107;-71
2021/12/02 11:28:23;;;;;;;7.97;1.08;;;1.90;99.90;;;;;;5056302;28;20043;-71
2021/12/02 11:30:49;;;;;;;2.70;1.33;;;2.00;99.90;;;;;;5068932;28;20048;-70
2021/12/02 11:33:18;;;;;;;2.38;1.10;;;2.00;99.90;;;;;;5070528;28;20036;-70
2021/12/02 11:35:47;;;;;;;5.80;1.17;;;2.00;99.90;;;;;;5070344;28;20124;-71
2021/12/02 11:38:22;;;;;;;3.05;1.13;;;2.00;99.90;;;;;;5068180;28;20044;-71
2021/12/02 11:40:50;;;;;;;2.22;1.30;;;2.00;99.90;;;;;;5070545;28;20047;-70
2021/12/02 11:43:23;;;;;;;4.55;1.45;;;2.10;99.90;;;;;;5069183;28;20040;-72
2021/12/02 11:45:50;;;;;;;3.65;1.58;;;2.00;99.90;;;;;;5068908;28;20053;-72
2021/12/02 11:48:25;;;;;;;7.00;1.50;;;2.00;99.90;;;;;;5066976;28;20037;-71
2021/12/02 11:50:57;;;;;;;5.47;1.40;;;2.00;99.90;;;;;;5069757;28;20444;-71
2021/12/02 11:53:24;;;;;;;4.80;1.25;;;2.00;99.90;;;;;;5060115;28;20112;-72
2021/12/02 11:55:54;;;;;;;2.50;1.30;;;2.00;99.90;;;;;;5066627;28;20044;-71
2021/12/02 11:58:20;;;;;;;3.72;1.63;;;2.00;99.90;;;;;;5064760;28;20059;-71
2021/12/02 12:00:46;;;;;;;3.05;1.00;;;2.00;99.90;;;;;;5063423;28;20490;-71
2021/12/02 12:03:17;;;;;;;2.97;1.10;;;2.00;99.90;;;;;;5072537;28;20051;-71
2021/12/02 12:05:56;;;;;;;3.58;1.40;;;2.00;99.90;;;;;;5067566;28;20141;-71
2021/12/02 12:08:38;;;;;;;2.83;1.40;;;2.20;99.90;;;;;;5052961;28;20052;-71
2021/12/02 12:11:34;;;;;;;2.45;1.15;;;2.20;99.90;;;;;;5068118;28;20076;-72
2021/12/02 12:14:04;;;;;;;2.42;1.00;;;2.30;99.90;;;;;;5062039;28;20410;-71
2021/12/02 12:16:32;;;;;;;1.48;0.98;;;2.40;99.90;;;;;;5058452;28;20036;-71
2021/12/02 12:19:22;;;;;;;2.28;1.15;;;2.50;99.90;;;;;;5061566;28;20041;-70
2021/12/02 12:21:53;;;;;;;1.80;1.00;;;2.50;99.90;;;;;;5071652;28;20044;-70
2021/12/02 12:24:19;;;;;;;3.10;1.00;;;2.40;99.90;;;;;;5068811;28;20037;-70
2021/12/02 12:26:46;;;;;;;1.15;0.80;;;2.30;99.90;;;;;;5062516;28;20052;-70
2021/12/02 12:29:13;;;;;;;1.20;0.70;;;2.10;99.90;;;;;;5058328;28;20475;-71
2021/12/02 12:31:51;;;;;;;0.93;0.68;;;2.10;99.90;;;;;;5065777;28;20052;-71
2021/12/02 12:35:13;;;;;;;1.13;0.63;;;1.90;99.90;;;;;;5068895;28;20550;-69
2021/12/02 12:37:28;;;;;;;0.88;0.60;;;1.80;99.90;;;;;;5066550;28;20048;-68
2021/12/02 12:40:24;;;;;;;3.17;0.60;;;1.70;99.90;;;;;;5066176;28;20048;-69
2021/12/02 12:43:02;;;;;;;0.50;0.50;;;1.70;99.90;;;;;;5060961;28;20049;-69
2021/12/02 12:45:37;;;;;;;1.08;0.80;;;1.60;99.90;;;;;;5062640;28;20040;-70
2021/12/02 12:48:05;;;;;;;0.70;0.70;;;1.60;99.90;;;;;;5067596;28;20064;-70
2021/12/02 12:50:36;;;;;;;0.98;0.88;;;1.60;99.90;;;;;;5056564;28;20578;-69
2021/12/02 12:53:30;;;;;;;1.27;0.90;;;1.60;99.90;;;;;;5084655;28;20383;-70
2021/12/02 12:55:56;;;;;;;1.83;0.95;;;1.60;99.90;;;;;;5056309;28;20044;-69
2021/12/02 12:58:25;;;;;;;1.98;1.17;;;1.60;99.90;;;;;;5056987;28;20390;-70
2021/12/02 13:01:00;;;;;;;1.80;1.20;;;1.60;99.90;;;;;;5062974;28;20054;-69
2021/12/02 13:03:44;;;;;;;1.75;1.00;;;1.70;99.90;;;;;;5058346;28;20037;-69
2021/12/02 13:06:22;;;;;;;1.58;1.10;;;1.70;99.90;;;;;;5054238;28;20599;-70
2021/12/02 13:08:49;;;;;;;1.77;1.17;;;1.70;99.90;;;;;;5059297;28;20029;-70
2021/12/02 13:11:24;;;;;;;0.88;0.65;;;1.70;99.90;;;;;;5058185;28;20430;-70
2021/12/02 13:13:52;;;;;;;3.55;1.00;;;1.80;99.90;;;;;;5052469;28;20056;-70
2021/12/02 13:16:21;;;;;;;1.65;1.00;;;1.80;99.90;;;;;;5055092;28;20051;-72
2021/12/02 13:18:59;;;;;;;3.17;1.20;;;1.90;99.90;;;;;;5053721;28;20127;-70
2021/12/02 13:21:32;;;;;;;5.55;1.58;;;2.00;99.90;;;;;;5060430;28;20045;-70